Time;durP1;ratioP1;P1;durP2;ratioP2;P2;SDS_P1;SDS_P2;PMS_P1;PMS_P2;Temp;Humidity;BMP_temperature;BMP_pressure;BME280_temperature;BME280_humidity;BME280_pressure;Samples;Min_cycle;Max_cycle;Signal;HPM_P1;HPM_P2
2022/03/17 00:00:15;;;;;;;;;12.00;12.00;;;;;13.40;100.00;101935.38;5077549;27;46116;-73
2022/03/17 00:02:42;;;;;;;;;9.75;8.25;;;;;13.43;100.00;101939.88;5077453;27;45231;-74
2022/03/17 00:05:10;;;;;;;;;11.00;10.50;;;;;13.39;100.00;101948.28;5077769;27;45487;-75
2022/03/17 00:07:37;;;;;;;;;13.00;10.00;;;;;13.31;100.00;101943.59;5073216;27;45463;-78
2022/03/17 00:10:07;;;;;;;;;11.00;9.25;;;;;13.28;100.00;101940.81;5076835;27;46336;-75
2022/03/17 00:12:33;;;;;;;;;12.00;11.00;;;;;13.32;100.00;101955.78;5074480;27;45568;-74
2022/03/17 00:14:59;;;;;;;;;19.00;14.75;;;;;13.32;100.00;101953.19;5083426;27;45414;-75
2022/03/17 00:17:26;;;;;;;;;11.75;10.00;;;;;13.24;100.00;101959.66;5077250;27;45513;-75
2022/03/17 00:19:52;;;;;;;;;14.25;14.25;;;;;13.22;100.00;101982.13;5076270;28;45396;-74
2022/03/17 00:22:18;;;;;;;;;16.50;14.25;;;;;13.18;100.00;101976.66;5077059;28;45559;-75
2022/03/17 00:24:44;;;;;;;;;15.25;15.25;;;;;13.14;100.00;101970.41;5076692;28;45421;-74
2022/03/17 00:27:10;;;;;;;;;15.50;15.00;;;;;13.12;100.00;101980.72;5077691;28;45482;-74
2022/03/17 00:29:37;;;;;;;;;17.00;15.75;;;;;13.09;100.00;101977.97;5076494;28;45538;-74
2022/03/17 00:32:04;;;;;;;;;19.00;15.75;;;;;13.03;100.00;101992.34;5076587;27;45905;-74
2022/03/17 00:34:30;;;;;;;;;23.75;21.25;;;;;12.97;100.00;101991.22;5076871;27;45423;-74
2022/03/17 00:36:56;;;;;;;;;20.75;20.75;;;;;12.91;100.00;102006.47;5076850;27;45382;-74
2022/03/17 00:39:21;;;;;;;;;20.50;19.00;;;;;12.89;100.00;102012.38;5076712;27;45277;-74
2022/03/17 00:41:47;;;;;;;;;19.75;18.50;;;;;12.83;100.00;101995.66;5076204;27;45195;-75
2022/03/17 00:44:14;;;;;;;;;21.25;20.25;;;;;12.83;100.00;102000.88;5076260;27;45216;-74
2022/03/17 00:46:40;;;;;;;;;21.00;19.75;;;;;12.91;100.00;102013.38;5078058;27;45223;-75
2022/03/17 00:49:07;;;;;;;;;24.50;22.25;;;;;12.92;100.00;102025.56;5083015;27;45362;-75
2022/03/17 00:51:33;;;;;;;;;23.75;22.50;;;;;12.83;100.00;102010.34;5075916;28;45539;-75
2022/03/17 00:53:59;;;;;;;;;22.00;19.00;;;;;12.80;100.00;102011.09;5076214;27;45491;-76
2022/03/17 00:56:26;;;;;;;;;25.25;21.75;;;;;12.90;100.00;102017.69;5076985;27;45391;-75
2022/03/17 00:58:52;;;;;;;;;22.25;20.50;;;;;12.87;100.00;102032.19;5076013;27;46072;-75
2022/03/17 01:01:18;;;;;;;;;27.25;22.50;;;;;12.85;100.00;102042.53;5076013;27;45714;-76
2022/03/17 01:03:46;;;;;;;;;21.75;20.25;;;;;12.84;100.00;102043.34;5079871;27;45305;-73
2022/03/17 01:06:12;;;;;;;;;22.75;21.00;;;;;12.86;100.00;102031.31;5076292;27;45539;-74
2022/03/17 01:08:38;;;;;;;;;21.00;21.00;;;;;12.85;100.00;102042.53;5076431;27;45999;-74
2022/03/17 01:11:05;;;;;;;;;25.50;19.25;;;;;12.74;100.00;102033.25;5090848;27;45864;-75
2022/03/17 01:13:31;;;;;;;;;25.00;21.25;;;;;12.70;100.00;102046.03;5054571;28;45325;-74
2022/03/17 01:15:57;;;;;;;;;24.00;22.50;;;;;12.69;100.00;102059.84;5056029;28;45372;-74
2022/03/17 01:18:22;;;;;;;;;24.00;22.75;;;;;12.74;100.00;102061.81;5055762;28;46053;-74
2022/03/17 01:20:50;;;;;;;;;21.00;19.75;;;;;12.71;100.00;102052.16;5074245;28;45283;-74
2022/03/17 01:23:17;;;;;;;;;23.50;22.25;;;;;12.74;100.00;102054.91;5076136;27;45423;-75
2022/03/17 01:25:44;;;;;;;;;25.25;22.00;;;;;12.77;100.00;102054.22;5076023;27;45488;-75
2022/03/17 01:28:09;;;;;;;;;21.50;21.00;;;;;12.82;100.00;102061.44;5076323;27;46109;-75
2022/03/17 01:30:36;;;;;;;;;23.50;21.75;;;;;12.80;100.00;102057.88;5076014;27;45320;-74
2022/03/17 01:33:03;;;;;;;;;23.75;21.00;;;;;12.81;100.00;102064.84;5075973;27;46316;-74
2022/03/17 01:35:29;;;;;;;;;24.00;21.25;;;;;12.73;100.00;102049.63;5076233;28;45282;-75
2022/03/17 01:37:55;;;;;;;;;24.25;21.00;;;;;12.76;100.00;102068.00;5075646;27;46489;-75
2022/03/17 01:40:21;;;;;;;;;25.50;22.25;;;;;12.70;100.00;102073.75;5075612;28;45356;-75
2022/03/17 01:42:47;;;;;;;;;24.75;23.75;;;;;12.65;100.00;102055.31;5076000;27;45748;-75
2022/03/17 01:45:15;;;;;;;;;23.00;21.00;;;;;12.66;100.00;102083.09;5075744;27;45483;-75
2022/03/17 01:47:42;;;;;;;;;22.75;22.25;;;;;12.66;100.00;102064.91;5075829;27;46190;-76
2022/03/17 01:50:11;;;;;;;;;25.00;20.00;;;;;12.70;100.00;102073.75;5075956;27;45879;-75
2022/03/17 01:52:38;;;;;;;;;22.25;19.50;;;;;12.68;100.00;102067.56;5091432;27;45347;-74
2022/03/17 01:55:06;;;;;;;;;27.50;24.25;;;;;12.67;100.00;102073.56;5075598;28;46083;-75
2022/03/17 01:57:32;;;;;;;;;23.25;21.50;;;;;12.66;100.00;102085.69;5076549;28;45354;-75
2022/03/17 02:00:00;;;;;;;;;18.75;18.75;;;;;12.69;100.00;102092.75;5078562;28;45895;-76
2022/03/17 02:02:26;;;;;;;;;21.25;20.25;;;;;12.66;100.00;102101.28;5079309;27;45365;-76
2022/03/17 02:04:52;;;;;;;;;21.00;19.00;;;;;12.62;100.00;102095.81;5079360;27;45495;-76
2022/03/17 02:07:19;;;;;;;;;22.75;20.50;;;;;12.61;100.00;102089.72;5075782;27;45524;-75
2022/03/17 02:09:48;;;;;;;;;23.00;21.00;;;;;12.63;100.00;102108.00;5081953;27;45720;-76
2022/03/17 02:15:06;;;;;;;;;23.50;19.75;;;;;12.64;100.00;102110.69;5079137;28;45226;-75
2022/03/17 02:17:35;;;;;;;;;19.75;18.25;;;;;12.64;100.00;102114.97;5093172;27;46263;-76
2022/03/17 02:20:02;;;;;;;;;21.75;19.25;;;;;12.67;100.00;102121.25;5087821;27;45244;-76
2022/03/17 02:22:29;;;;;;;;;19.75;18.75;;;;;12.64;100.00;102133.16;5091635;27;45554;-75
2022/03/17 02:27:46;;;;;;;;;20.50;18.25;;;;;12.53;100.00;102137.75;5065043;27;45785;-75
2022/03/17 02:30:15;;;;;;;;;21.75;19.75;;;;;12.56;100.00;102143.13;5078720;27;45938;-75
2022/03/17 02:32:41;;;;;;;;;24.50;20.50;;;;;12.52;100.00;102133.34;5091195;27;45568;-76
2022/03/17 02:35:11;;;;;;;;;19.25;18.00;;;;;12.50;100.00;102141.06;5078483;27;45267;-76
2022/03/17 02:37:38;;;;;;;;;20.00;19.00;;;;;12.52;100.00;102135.94;5084242;27;45980;-75
2022/03/17 02:40:07;;;;;;;;;20.00;18.75;;;;;12.52;100.00;102131.66;5096522;27;45899;-76
2022/03/17 02:42:33;;;;;;;;;20.00;19.00;;;;;12.59;100.00;102142.41;5108752;27;45490;-77
2022/03/17 02:45:01;;;;;;;;;22.75;21.25;;;;;12.62;100.00;102150.38;5076897;27;45569;-76
2022/03/17 02:47:27;;;;;;;;;20.00;20.00;;;;;12.59;100.00;102138.06;5097279;27;45524;-75
2022/03/17 02:49:55;;;;;;;;;19.00;18.25;;;;;12.65;100.00;102142.72;5077103;27;46081;-77
2022/03/17 02:52:22;;;;;;;;;17.25;16.00;;;;;12.58;100.00;102149.28;5095979;27;45270;-76
2022/03/17 02:54:49;;;;;;;;;20.25;18.00;;;;;12.48;100.00;102132.28;5097181;27;45506;-75
2022/03/17 02:57:14;;;;;;;;;22.50;18.75;;;;;12.61;100.00;102162.44;5095744;27;46504;-76
2022/03/17 02:59:40;;;;;;;;;19.50;18.25;;;;;12.59;100.00;102158.88;5078270;27;45271;-75
2022/03/17 03:02:06;;;;;;;;;23.50;20.50;;;;;12.62;100.00;102156.44;5086596;27;45279;-75
2022/03/17 03:04:35;;;;;;;;;18.75;18.00;;;;;12.64;100.00;102152.25;5079715;27;45580;-75
2022/03/17 03:07:06;;;;;;;;;19.50;18.75;;;;;12.63;100.00;102162.56;5077721;27;45559;-75
2022/03/17 03:09:32;;;;;;;;;20.50;19.00;;;;;12.69;100.00;102174.19;5079034;27;45461;-75
2022/03/17 03:11:58;;;;;;;;;22.75;19.50;;;;;12.70;100.00;102175.97;5077569;27;45407;-74
2022/03/17 03:14:23;;;;;;;;;19.00;19.00;;;;;12.75;100.00;102175.34;5078217;27;45484;-75
2022/03/17 03:16:50;;;;;;;;;17.75;14.50;;;;;12.70;100.00;102191.56;5076261;27;48056;-75
2022/03/17 03:19:16;;;;;;;;;22.50;21.00;;;;;12.61;100.00;102191.03;5078698;27;45826;-75
2022/03/17 03:21:43;;;;;;;;;23.25;19.75;;;;;12.49;100.00;102173.03;5083320;27;45235;-75
2022/03/17 03:24:10;;;;;;;;;20.00;19.25;;;;;12.49;100.00;102193.81;5086572;27;45374;-75
2022/03/17 03:26:36;;;;;;;;;19.50;16.00;;;;;12.46;100.00;102192.75;5081717;27;45505;-75
2022/03/17 03:29:04;;;;;;;;;19.25;15.75;;;;;12.42;100.00;102191.63;5077773;28;45715;-76
2022/03/17 03:31:30;;;;;;;;;19.00;17.25;;;;;12.38;100.00;102198.34;5085788;27;45401;-76
2022/03/17 03:33:55;;;;;;;;;19.00;16.00;;;;;12.36;100.00;102201.69;5061104;27;45428;-74
2022/03/17 03:39:05;;;;;;;;;18.00;17.50;;;;;12.25;100.00;102207.94;5077624;27;45336;-75
2022/03/17 03:41:30;;;;;;;;;14.25;14.25;;;;;12.29;100.00;102220.31;5082467;27;45584;-75
2022/03/17 03:43:56;;;;;;;;;14.50;12.25;;;;;12.27;100.00;102233.19;5095007;27;45599;-75
2022/03/17 03:46:22;;;;;;;;;16.00;13.50;;;;;12.21;100.00;102238.00;5080120;27;45370;-75
2022/03/17 03:48:47;;;;;;;;;15.50;15.50;;;;;12.16;100.00;102250.72;5077484;27;45251;-75
2022/03/17 03:51:13;;;;;;;;;16.00;15.75;;;;;12.15;100.00;102240.25;5077528;27;45301;-75
2022/03/17 03:56:25;;;;;;;;;17.50;16.00;;;;;11.99;100.00;102243.56;5092547;27;45782;-74
2022/03/17 03:58:50;;;;;;;;;15.00;12.50;;;;;11.97;100.00;102261.59;5077116;27;45242;-75
2022/03/17 04:01:18;;;;;;;;;13.75;11.25;;;;;11.92;100.00;102248.34;5077047;27;45290;-75
2022/03/17 04:03:44;;;;;;;;;16.75;12.75;;;;;11.92;100.00;102270.81;5077194;27;45349;-74
2022/03/17 04:06:10;;;;;;;;;10.25;10.25;;;;;11.89;100.00;102275.81;5082170;27;45388;-74
2022/03/17 04:08:36;;;;;;;;;10.75;8.50;;;;;11.83;100.00;102273.72;5096473;27;45875;-73
2022/03/17 04:11:02;;;;;;;;;13.50;9.50;;;;;11.75;100.00;102275.81;5079918;27;45172;-74
2022/03/17 04:13:28;;;;;;;;;12.50;9.50;;;;;11.74;100.00;102276.63;5097649;27;45521;-75
2022/03/17 04:15:53;;;;;;;;;10.00;8.75;;;;;11.81;100.00;102292.59;5090965;27;45306;-77
2022/03/17 04:18:19;;;;;;;;;13.50;9.50;;;;;11.80;100.00;102291.69;5076796;27;45243;-74
2022/03/17 04:20:44;;;;;;;;;10.50;10.00;;;;;11.81;100.00;102300.38;5074668;28;45345;-74
2022/03/17 04:23:10;;;;;;;;;11.00;9.50;;;;;11.74;100.00;102299.97;5077837;27;45215;-74
2022/03/17 04:25:36;;;;;;;;;9.25;9.25;;;;;11.74;100.00;102307.75;5090479;27;45257;-74
2022/03/17 04:28:04;;;;;;;;;11.75;9.75;;;;;11.77;100.00;102307.06;5093249;27;46155;-75
2022/03/17 04:30:30;;;;;;;;;7.50;7.25;;;;;11.77;100.00;102315.75;5077180;27;45343;-75
2022/03/17 04:32:56;;;;;;;;;8.50;8.50;;;;;11.84;100.00;102329.09;5076920;27;45499;-75
2022/03/17 04:35:21;;;;;;;;;11.00;10.00;;;;;11.82;100.00;102329.03;5076787;27;45583;-75
2022/03/17 04:37:47;;;;;;;;;8.25;8.25;;;;;11.87;100.00;102335.41;5089615;27;45365;-74
2022/03/17 04:40:13;;;;;;;;;7.50;7.50;;;;;11.89;100.00;102335.50;5093511;27;45168;-76
2022/03/17 04:42:39;;;;;;;;;8.50;8.00;;;;;11.96;100.00;102339.38;5078330;27;45564;-74
2022/03/17 04:45:05;;;;;;;;;8.00;8.00;;;;;12.03;100.00;102339.91;5077155;27;45970;-74
2022/03/17 04:47:30;;;;;;;;;10.00;9.00;;;;;12.10;100.00;102342.88;5086744;27;45487;-74
2022/03/17 04:49:56;;;;;;;;;10.50;9.00;;;;;12.22;100.00;102348.88;5076494;27;45197;-75
2022/03/17 04:55:06;;;;;;;;;10.00;9.75;;;;;12.23;100.00;102343.75;5077170;27;45777;-74
2022/03/17 04:57:31;;;;;;;;;10.00;9.00;;;;;12.29;100.00;102351.03;5076601;27;46101;-76
2022/03/17 04:59:57;;;;;;;;;9.50;7.00;;;;;12.32;100.00;102355.50;5075042;27;45386;-74
2022/03/17 05:02:23;;;;;;;;;8.00;8.00;;;;;12.39;100.00;102358.59;5096758;27;45503;-74
2022/03/17 05:04:48;;;;;;;;;11.00;8.00;;;;;12.34;100.00;102356.50;5094595;27;45591;-76
2022/03/17 05:07:14;;;;;;;;;7.00;6.00;;;;;12.36;100.00;102365.31;5094946;27;45259;-76
2022/03/17 05:09:40;;;;;;;;;8.25;8.25;;;;;12.34;100.00;102367.81;5097120;27;45348;-76
2022/03/17 05:12:06;;;;;;;;;8.25;6.75;;;;;12.30;100.00;102375.31;5076037;27;45498;-75
2022/03/17 05:14:32;;;;;;;;;10.50;8.25;;;;;12.28;100.00;102382.13;5076179;28;46245;-75
2022/03/17 05:16:58;;;;;;;;;7.25;6.75;;;;;12.18;100.00;102365.94;5076018;27;45361;-76
2022/03/17 05:19:23;;;;;;;;;8.00;8.00;;;;;12.29;100.00;102390.00;5075764;28;45363;-74
2022/03/17 05:21:49;;;;;;;;;7.50;7.00;;;;;12.27;100.00;102401.09;5076269;28;45212;-75
2022/03/17 05:24:14;;;;;;;;;11.50;7.75;;;;;12.25;100.00;102398.41;5075984;27;45883;-74
2022/03/17 05:26:40;;;;;;;;;8.50;7.00;;;;;12.22;100.00;102404.28;5075027;28;45251;-75
2022/03/17 05:29:06;;;;;;;;;7.50;7.50;;;;;12.18;100.00;102412.69;5076202;27;45231;-76
2022/03/17 05:31:31;;;;;;;;;8.25;7.50;;;;;12.15;100.00;102409.88;5075141;27;45764;-74
2022/03/17 05:33:57;;;;;;;;;9.50;7.25;;;;;12.03;100.00;102407.41;5077183;28;47274;-74
2022/03/17 05:36:25;;;;;;;;;7.50;7.50;;;;;12.04;100.00;102421.28;5079574;28;45359;-74
2022/03/17 05:38:51;;;;;;;;;7.25;7.00;;;;;11.96;100.00;102422.44;5079267;27;45495;-76
2022/03/17 05:41:16;;;;;;;;;7.00;7.00;;;;;11.92;100.00;102427.44;5079895;28;45326;-74
2022/03/17 05:43:42;;;;;;;;;6.25;6.25;;;;;11.84;100.00;102427.72;5078897;27;45982;-74
2022/03/17 05:46:07;;;;;;;;;8.00;6.75;;;;;11.80;100.00;102430.94;5078144;28;45207;-76
2022/03/17 05:48:33;;;;;;;;;8.50;5.25;;;;;11.73;100.00;102437.41;5077862;27;45318;-75
2022/03/17 05:50:59;;;;;;;;;7.75;6.75;;;;;11.73;100.00;102442.59;5079285;27;45263;-75
2022/03/17 05:53:24;;;;;;;;;10.50;8.25;;;;;11.71;100.00;102447.69;5079088;28;45963;-74
2022/03/17 05:55:50;;;;;;;;;6.50;6.50;;;;;11.65;100.00;102442.09;5079239;27;45321;-75
2022/03/17 05:58:15;;;;;;;;;6.50;6.50;;;;;11.68;100.00;102457.84;5079111;27;45391;-75
2022/03/17 06:00:41;;;;;;;;;8.00;8.00;;;;;11.64;100.00;102448.06;5079555;28;45522;-76
2022/03/17 06:03:06;;;;;;;;;8.50;6.50;;;;;11.61;100.00;102453.03;5078401;27;45462;-74
2022/03/17 06:05:32;;;;;;;;;8.50;8.00;;;;;11.63;100.00;102474.81;5078920;27;45490;-74
2022/03/17 06:08:02;;;;;;;;;8.00;8.00;;;;;11.63;100.00;102469.59;5088541;27;45530;-75
2022/03/17 06:10:32;;;;;;;;;6.75;6.00;;;;;11.61;100.00;102482.50;5099220;27;45335;-74
2022/03/17 06:13:00;;;;;;;;;6.75;6.75;;;;;11.61;100.00;102494.53;5098653;27;46003;-74
2022/03/17 06:15:26;;;;;;;;;7.00;5.50;;;;;11.58;100.00;102490.06;5098657;27;45350;-74
2022/03/17 06:17:55;;;;;;;;;5.00;5.00;;;;;11.52;100.00;102486.13;5099299;27;45294;-74
2022/03/17 06:20:26;;;;;;;;;7.75;5.00;;;;;11.50;100.00;102503.31;5099375;27;45555;-73
2022/03/17 06:22:53;;;;;;;;;9.00;7.50;;;;;11.50;100.00;102514.59;5099340;27;45561;-74
2022/03/17 06:25:21;;;;;;;;;5.25;4.75;;;;;11.44;98.15;102515.06;5098495;27;45386;-73
2022/03/17 06:27:48;;;;;;;;;6.50;5.75;;;;;11.41;98.29;102519.16;5087591;27;45397;-74
2022/03/17 06:30:19;;;;;;;;;4.75;4.75;;;;;11.34;97.37;102524.72;5076787;27;45383;-74
2022/03/17 06:32:45;;;;;;;;;4.00;4.00;;;;;11.29;98.06;102529.53;5076634;27;45574;-73
2022/03/17 06:35:15;;;;;;;;;4.00;3.50;;;;;11.27;96.90;102536.34;5077094;27;45379;-75
2022/03/17 06:37:48;;;;;;;;;7.50;5.75;;;;;11.26;96.82;102550.09;5077240;27;45490;-76
2022/03/17 06:40:17;;;;;;;;;5.50;4.00;;;;;11.26;96.70;102563.06;5056877;28;45267;-74
2022/03/17 06:42:44;;;;;;;;;7.00;7.00;;;;;11.25;95.89;102562.16;5065278;27;45552;-73
2022/03/17 06:45:10;;;;;;;;;4.00;4.00;;;;;11.17;94.91;102559.81;5085353;27;45793;-75
2022/03/17 06:47:36;;;;;;;;;6.25;4.00;;;;;11.19;95.09;102573.78;5095063;27;45259;-75
2022/03/17 06:50:02;;;;;;;;;3.25;3.00;;;;;11.18;95.78;102582.34;5079761;27;45702;-74
2022/03/17 06:52:28;;;;;;;;;4.25;3.75;;;;;11.11;95.99;102566.38;5082725;27;45525;-74
2022/03/17 06:54:53;;;;;;;;;3.75;3.75;;;;;11.22;94.47;102581.78;5092650;27;45337;-75
2022/03/17 06:57:21;;;;;;;;;4.00;4.00;;;;;11.20;94.70;102580.75;5079234;27;45451;-75
2022/03/17 06:59:48;;;;;;;;;6.50;5.75;;;;;11.21;93.11;102598.13;5075087;27;45365;-75
2022/03/17 07:02:13;;;;;;;;;7.50;4.25;;;;;11.13;93.70;102593.31;5083453;27;45489;-79
2022/03/17 07:04:39;;;;;;;;;4.50;4.00;;;;;11.17;94.45;102596.13;5078461;27;45263;-81
2022/03/17 07:07:05;;;;;;;;;5.00;5.00;;;;;11.18;95.44;102605.66;5088687;27;45289;-79
2022/03/17 07:09:31;;;;;;;;;6.00;5.00;;;;;11.17;94.46;102606.50;5077404;28;45314;-81
2022/03/17 07:11:57;;;;;;;;;5.50;5.00;;;;;11.19;94.72;102613.56;5075853;27;45972;-78
2022/03/17 07:14:22;;;;;;;;;6.50;5.00;;;;;11.15;94.97;102606.34;5077259;27;45538;-81
2022/03/17 07:16:48;;;;;;;;;8.00;6.00;;;;;11.20;95.42;102617.06;5076687;28;45705;-78
2022/03/17 07:19:15;;;;;;;;;7.00;5.00;;;;;11.23;96.15;102628.53;5076153;28;45834;-78
2022/03/17 07:21:41;;;;;;;;;7.50;6.50;;;;;11.29;96.27;102620.31;5077518;27;45322;-79
2022/03/17 07:24:09;;;;;;;;;7.75;7.50;;;;;11.34;96.66;102621.53;5075303;27;45507;-73
2022/03/17 07:27:24;;;;;;;;;6.00;6.00;;;;;11.43;95.28;102629.09;5029947;28;45337;-75
2022/03/17 07:29:50;;;;;;;;;6.25;5.00;;;;;11.43;95.15;102645.53;5010663;28;45493;-75
2022/03/17 07:32:16;;;;;;;;;8.00;7.50;;;;;11.41;94.50;102641.03;5021773;28;45460;-74
2022/03/17 07:34:42;;;;;;;;;7.00;6.75;;;;;11.37;94.18;102634.75;5027500;28;45283;-79
2022/03/17 07:37:08;;;;;;;;;7.00;6.00;;;;;11.30;94.66;102635.06;5010356;28;46265;-75
2022/03/17 07:39:34;;;;;;;;;7.25;5.50;;;;;11.36;95.49;102651.09;5008876;27;45386;-75
2022/03/17 07:41:59;;;;;;;;;7.50;6.00;;;;;11.41;95.61;102647.09;5009257;28;45520;-73
2022/03/17 07:44:28;;;;;;;;;7.00;7.00;;;;;11.42;95.34;102653.22;5008217;27;45615;-74
2022/03/17 07:46:55;;;;;;;;;5.50;5.50;;;;;11.45;95.13;102650.81;5007832;27;45484;-74
2022/03/17 07:49:20;;;;;;;;;9.00;8.00;;;;;11.50;94.66;102656.34;5007467;27;45387;-74
2022/03/17 07:51:46;;;;;;;;;6.25;6.25;;;;;11.52;93.50;102666.03;5009365;27;45231;-73
2022/03/17 07:54:12;;;;;;;;;6.50;4.50;;;;;11.45;92.86;102661.19;5009815;27;45433;-73
2022/03/17 07:56:38;;;;;;;;;7.00;6.75;;;;;11.44;93.24;102665.50;5007312;27;46075;-73
2022/03/17 07:59:03;;;;;;;;;8.00;6.75;;;;;11.44;93.66;102677.56;5011829;27;45326;-73
2022/03/17 08:01:29;;;;;;;;;12.75;10.50;;;;;11.46;94.00;102670.78;5016341;28;45587;-73
2022/03/17 08:03:55;;;;;;;;;7.00;5.25;;;;;11.46;93.43;102681.16;5016608;28;45561;-74
2022/03/17 08:06:25;;;;;;;;;6.00;6.00;;;;;11.45;93.24;102676.75;5023295;28;45842;-75
2022/03/17 08:08:51;;;;;;;;;10.50;7.25;;;;;11.45;93.26;102684.53;5008837;28;45700;-75
2022/03/17 08:11:17;;;;;;;;;11.25;7.00;;;;;11.45;93.18;102695.81;5013040;28;45661;-74
2022/03/17 08:13:43;;;;;;;;;7.50;5.50;;;;;11.41;93.28;102678.22;5006485;28;45454;-75
2022/03/17 08:16:10;;;;;;;;;8.50;7.00;;;;;11.49;93.59;102699.53;4993541;27;46591;-74
2022/03/17 08:18:38;;;;;;;;;6.25;5.75;;;;;11.48;92.75;102700.31;5008060;28;45413;-74
2022/03/17 08:21:04;;;;;;;;;7.50;7.00;;;;;11.46;92.48;102700.22;5006561;28;45444;-75
2022/03/17 08:23:30;;;;;;;;;7.25;7.00;;;;;11.53;92.11;102716.22;5007635;27;45511;-74
2022/03/17 08:25:56;;;;;;;;;9.00;7.75;;;;;11.54;91.50;102712.84;5009287;27;45444;-74
2022/03/17 08:28:21;;;;;;;;;8.25;6.25;;;;;11.54;90.90;102723.22;5006517;27;45694;-75
2022/03/17 08:30:50;;;;;;;;;6.75;5.25;;;;;11.45;90.79;102708.78;5007765;28;45291;-74
2022/03/17 08:33:17;;;;;;;;;10.25;8.00;;;;;11.54;91.06;102731.91;5008132;27;45627;-73
2022/03/17 08:35:45;;;;;;;;;9.50;8.75;;;;;11.57;91.31;102729.50;5007955;28;45474;-73
2022/03/17 08:38:11;;;;;;;;;8.00;8.00;;;;;11.63;90.78;102742.03;4997865;28;45252;-74
2022/03/17 08:40:40;;;;;;;;;9.00;7.00;;;;;11.64;90.49;102737.75;4994659;28;45457;-73
2022/03/17 08:43:07;;;;;;;;;9.75;9.00;;;;;11.75;89.79;102742.03;4986826;28;45565;-72
2022/03/17 08:51:13;;;;;;;;;6.75;6.75;;;;;11.77;87.32;102764.69;4994081;28;45318;-73
2022/03/17 08:53:38;;;;;;;;;11.75;10.00;;;;;11.79;86.04;102777.75;4994164;28;45318;-74
2022/03/17 08:56:05;;;;;;;;;9.50;6.75;;;;;11.74;85.13;102780.03;4994013;28;46285;-73
2022/03/17 08:58:31;;;;;;;;;13.00;11.75;;;;;11.69;85.74;102778.81;4994246;28;45829;-74
2022/03/17 09:01:00;;;;;;;;;7.00;6.00;;;;;11.65;85.11;102784.56;4993894;28;45267;-73
2022/03/17 09:03:29;;;;;;;;;10.50;7.75;;;;;11.66;85.76;102791.56;5063645;27;46008;-73
2022/03/17 09:05:58;;;;;;;;;8.50;7.25;;;;;11.65;85.64;102783.66;5061605;27;45651;-74
2022/03/17 09:08:25;;;;;;;;;10.25;8.00;;;;;11.63;86.02;102785.25;4994042;28;45263;-74
2022/03/17 09:10:50;;;;;;;;;10.25;7.75;;;;;11.68;84.29;102794.25;5013907;27;45461;-74
2022/03/17 09:13:16;;;;;;;;;9.50;6.00;;;;;11.65;84.36;102802.72;5020505;27;45444;-74
2022/03/17 09:15:42;;;;;;;;;7.00;6.25;;;;;11.59;85.24;102802.28;5096709;27;45467;-73
2022/03/17 09:18:12;;;;;;;;;8.00;7.25;;;;;11.54;85.78;102796.75;5097571;27;45398;-73
2022/03/17 09:20:39;;;;;;;;;13.00;12.00;;;;;11.65;86.70;102801.81;5079486;27;45260;-75
2022/03/17 09:23:05;;;;;;;;;11.75;7.75;;;;;11.69;86.23;102806.44;5097933;27;45434;-72
2022/03/17 09:25:34;;;;;;;;;10.00;9.75;;;;;11.69;85.19;102809.03;5097889;27;45434;-74
2022/03/17 09:28:00;;;;;;;;;8.00;8.00;;;;;11.65;85.62;102814.81;5079555;27;45331;-72
2022/03/17 09:30:26;;;;;;;;;13.75;9.00;;;;;11.69;86.52;102816.81;5010259;28;45456;-72
2022/03/17 09:32:52;;;;;;;;;15.50;8.00;;;;;11.74;86.11;102828.44;5016257;27;45623;-73
2022/03/17 09:35:19;;;;;;;;;9.25;7.00;;;;;11.69;85.71;102827.19;4995421;28;46745;-74
2022/03/17 09:37:44;;;;;;;;;7.75;7.75;;;;;11.71;85.76;102831.72;5013928;28;45158;-74
2022/03/17 09:40:11;;;;;;;;;7.75;7.75;;;;;11.75;84.86;102827.66;5013589;28;45473;-75
2022/03/17 09:42:38;;;;;;;;;11.50;9.75;;;;;11.77;85.58;102837.34;5014000;28;45390;-74
2022/03/17 09:45:05;;;;;;;;;9.00;8.25;;;;;11.76;85.27;102851.09;4999736;28;46043;-73
2022/03/17 09:47:37;;;;;;;;;7.75;7.75;;;;;11.76;84.60;102845.03;4994991;28;45323;-75
2022/03/17 09:50:04;;;;;;;;;8.00;8.00;;;;;11.75;83.63;102851.00;5007913;28;45533;-73
2022/03/17 09:52:31;;;;;;;;;6.50;6.50;;;;;11.63;83.59;102831.94;4990950;28;45214;-74
2022/03/17 09:54:57;;;;;;;;;9.00;7.50;;;;;11.57;83.70;102838.47;5089117;27;46018;-73
2022/03/17 09:57:23;;;;;;;;;14.00;12.00;;;;;11.60;84.66;102848.19;5029942;27;45797;-74
2022/03/17 09:59:56;;;;;;;;;12.50;11.25;;;;;11.64;85.23;102849.31;4993727;27;45211;-75
2022/03/17 10:02:22;;;;;;;;;8.75;8.25;;;;;11.66;85.28;102850.34;4994699;28;45241;-73
2022/03/17 10:04:49;;;;;;;;;9.00;8.25;;;;;11.76;84.85;102852.81;4995369;28;45560;-75
2022/03/17 10:07:18;;;;;;;;;11.25;8.75;;;;;11.79;84.25;102855.59;4993934;28;45751;-75
2022/03/17 10:09:49;;;;;;;;;8.50;6.50;;;;;11.77;83.55;102867.56;4993298;28;45508;-75
2022/03/17 10:12:20;;;;;;;;;7.25;7.25;;;;;11.82;82.97;102857.56;4998537;27;45330;-73
2022/03/17 10:14:52;;;;;;;;;11.25;8.00;;;;;11.77;82.69;102847.72;4984873;28;45450;-77
2022/03/17 10:17:41;;;;;;;;;10.75;9.50;;;;;11.83;82.74;102859.31;4996489;28;45749;-74
2022/03/17 10:20:25;;;;;;;;;8.25;6.75;;;;;11.88;82.30;102866.66;4987460;28;45520;-73
2022/03/17 10:23:03;;;;;;;;;8.00;7.00;;;;;11.80;81.49;102857.41;4994345;28;45626;-73
2022/03/17 10:25:31;;;;;;;;;9.25;8.75;;;;;11.76;81.58;102853.69;4984818;28;46039;-74
2022/03/17 10:27:57;;;;;;;;;9.00;8.00;;;;;11.83;82.16;102854.13;4994768;28;45471;-74
2022/03/17 10:30:24;;;;;;;;;7.25;7.25;;;;;11.97;81.81;102881.13;4995175;28;45935;-76
2022/03/17 10:32:55;;;;;;;;;12.75;7.50;;;;;12.04;81.65;102873.88;4994298;28;45306;-73
2022/03/17 10:35:34;;;;;;;;;10.00;9.75;;;;;12.07;81.72;102884.50;4995394;28;46128;-72
2022/03/17 10:38:22;;;;;;;;;11.00;10.00;;;;;12.05;81.91;102885.19;4992560;28;45450;-75
2022/03/17 10:41:12;;;;;;;;;9.00;8.00;;;;;12.05;81.36;102890.38;4993258;28;45223;-74
2022/03/17 10:43:40;;;;;;;;;7.00;7.00;;;;;12.04;82.53;102892.06;4976661;28;45572;-74
2022/03/17 10:46:09;;;;;;;;;10.75;8.75;;;;;12.08;81.20;102894.09;4996163;28;45532;-73
2022/03/17 10:48:51;;;;;;;;;12.00;10.50;;;;;12.11;80.62;102893.41;4991888;27;46472;-73
2022/03/17 10:51:37;;;;;;;;;8.75;7.75;;;;;12.23;81.23;102903.81;4994004;27;45367;-73
2022/03/17 10:54:10;;;;;;;;;6.50;6.50;;;;;12.16;78.79;102898.94;5038963;27;45169;-73
2022/03/17 10:56:38;;;;;;;;;11.50;9.25;;;;;12.08;79.62;102906.19;4993273;27;45472;-73
2022/03/17 10:59:05;;;;;;;;;9.50;8.00;;;;;12.06;80.23;102915.56;5010340;28;45560;-73
2022/03/17 11:01:45;;;;;;;;;9.50;9.00;;;;;12.15;80.48;102910.16;4992985;28;45348;-73
2022/03/17 11:04:12;;;;;;;;;9.50;9.50;;;;;12.15;80.81;102913.63;4992904;28;45334;-73
2022/03/17 11:06:39;;;;;;;;;8.50;8.50;;;;;12.18;81.16;102908.66;4992736;28;45261;-73
2022/03/17 11:09:08;;;;;;;;;7.75;7.75;;;;;12.12;80.67;102897.81;4992176;28;45768;-75
2022/03/17 11:11:37;;;;;;;;;12.00;8.75;;;;;12.25;78.96;102912.63;4992812;28;45369;-75
2022/03/17 11:14:04;;;;;;;;;10.25;9.00;;;;;12.21;79.30;102913.16;4992514;28;45292;-75
2022/03/17 11:16:47;;;;;;;;;12.00;10.25;;;;;12.21;79.92;102927.03;4999550;28;45393;-74
2022/03/17 11:19:16;;;;;;;;;16.00;14.00;;;;;12.28;80.12;102932.69;4994463;27;45904;-73
2022/03/17 11:22:00;;;;;;;;;12.25;10.50;;;;;12.39;79.69;102923.97;4991489;27;45333;-74
2022/03/17 11:24:26;;;;;;;;;13.25;9.50;;;;;12.42;78.70;102916.38;4984161;27;45282;-74
2022/03/17 11:27:14;;;;;;;;;9.50;8.50;;;;;12.43;78.51;102931.19;4999500;28;45471;-75
2022/03/17 11:29:44;;;;;;;;;8.75;8.75;;;;;12.41;77.12;102925.00;4995675;28;45263;-74
2022/03/17 11:32:31;;;;;;;;;12.75;8.00;;;;;12.41;76.63;102937.06;5012134;28;45359;-73
2022/03/17 11:35:06;;;;;;;;;9.25;8.50;;;;;12.44;76.40;102934.69;5012458;28;45394;-74